Terminal Aerodrome Forecast
Issued by NWS Miami, FL

Current Version | Previous Version | Text Only | Print | Product List | Glossary On
Versions: 1 2 3 4 5 6 7 8 9 10 11 12 13 14 15 16 17 18 19 20 21 22 23 24 25
000
FTUS42 KMFL 311512 AAA
TAFFLL
TAF AMD
KFLL 311512Z 3115/0112 30010KT P6SM SCT045
     FM311600 29010KT P6SM VCSH SCT040 SCT250
     FM010100 29008KT P6SM FEW040=

USA.gov is the U.S. government's official web portal to all federal, state and local government web resources and services.